WetterOnline ( https://www.wetteronline.de )

Wetter aktuell Seubersdorf

Aktuelles Wetter: Gelbelsee (539m)

6-stündlich | Neueste Meldungen
Ortszeit Temperatur Wetter
So, 09.05. 20:00 20.4° C wolkig
So, 09.05. 14:00 23.2° C wolkenlos
So, 09.05. 8:00 10.0° C leicht bewölkt
So, 09.05. 2:00 8.3° C leicht bewölkt
Sa, 08.05. 20:00 13.8° C bedeckt
Sa, 08.05. 14:00 12.7° C wolkig
Sa, 08.05. 8:00 6.3° C leicht bewölkt
Sa, 08.05. 2:00 1.2° C wolkenlos
Ortszeit Temperatur Wetter
Mo, 10.05. 1:30 16.4° C wolkig
Mo, 10.05. 1:20 16.4° C wolkig
Mo, 10.05. 1:10 16.6° C wolkig
Mo, 10.05. 1:00 16.6° C leicht bewölkt
Mo, 10.05. 0:50 16.6° C leicht bewölkt
Mo, 10.05. 0:40 16.7° C leicht bewölkt
Mo, 10.05. 0:30 16.8° C leicht bewölkt
Mo, 10.05. 0:00 17.2° C leicht bewölkt
Ortszeit Relative Feuchte Sichtweite
So, 09.05. 20:00 45% >70 km
So, 09.05. 14:00 43% >70 km
So, 09.05. 8:00 68% 45 km
So, 09.05. 2:00 70% 55 km
Sa, 08.05. 20:00 50% >70 km
Sa, 08.05. 14:00 46% 60 km
Sa, 08.05. 8:00 66% 55 km
Sa, 08.05. 2:00 88% 40 km
Ortszeit Relative Feuchte Sichtweite
Mo, 10.05. 1:30 54% 60 km
Mo, 10.05. 1:20 54% -
Mo, 10.05. 1:10 54% -
Mo, 10.05. 1:00 54% 60 km
Mo, 10.05. 0:50 54% -
Mo, 10.05. 0:40 53% -
Mo, 10.05. 0:30 53% >70 km
Mo, 10.05. 0:00 50% >70 km
Ortszeit Niederschlagsmenge Niederschlagsart
So, 09.05. 20:00 0.0 l/m2 in 12 Std. -
So, 09.05. 14:00 0.0 l/m2 in 6 Std. -
So, 09.05. 8:00 0.0 l/m2 in 12 Std. -
So, 09.05. 2:00 0.0 l/m2 in 6 Std. -
Sa, 08.05. 20:00 0.0 l/m2 in 12 Std. -
Sa, 08.05. 14:00 0.0 l/m2 in 6 Std. -
Sa, 08.05. 8:00 0.0 l/m2 in 12 Std. -
Sa, 08.05. 2:00 0.0 l/m2 in 6 Std. -
Ortszeit Niederschlagsmenge Niederschlagsart
Mo, 10.05. 1:30 0.0 l/m2 in 1 Std. -
Mo, 10.05. 1:20 keine Meldung -
Mo, 10.05. 1:10 keine Meldung -
Mo, 10.05. 1:00 0.0 l/m2 in 1 Std. -
Mo, 10.05. 0:50 keine Meldung -
Mo, 10.05. 0:40 keine Meldung -
Mo, 10.05. 0:30 0.0 l/m2 in 1 Std. -
Mo, 10.05. 0:00 0.0 l/m2 in 1 Std. -
Ortszeit Stärke Spitze Richtung
km/h Bft. km/h Grad Sektor
So, 09.05. 20:00 7 2 31 70° O
So, 09.05. 14:00 18 3 32 120° SO
So, 09.05. 8:00 11 2 18 130° SO
So, 09.05. 2:00 7 2 18 130° SO
Sa, 08.05. 20:00 7 2 29 130° SO
Sa, 08.05. 14:00 11 2 25 190° S
Sa, 08.05. 8:00 4 1 14 170° S
Sa, 08.05. 2:00 2 1 30 280° W
Ortszeit Stärke Spitze Richtung
km/h Bft. km/h Grad Sektor
Mo, 10.05. 1:30 4 1 7 190° S
Mo, 10.05. 1:20 4 1 - 190° S
Mo, 10.05. 1:10 4 1 - 170° S
Mo, 10.05. 1:00 4 1 7 150° SO
Mo, 10.05. 0:50 4 1 - 150° SO
Mo, 10.05. 0:40 4 1 - 140° SO
Mo, 10.05. 0:30 4 1 7 170° S
Mo, 10.05. 0:00 6 1 15 150° SO
Ortszeit Untergrenze Bedeckung Gattung
total tief tief mittel hoch
So, 09.05. 20:00 8100 m 8/8 0/8 - - -
So, 09.05. 14:00 - 0/8 0/8 - - -
So, 09.05. 8:00 9000 m 4/8 0/8 - - -
So, 09.05. 2:00 8100 m 3/8 0/8 - - -
Sa, 08.05. 20:00 4800 m 8/8 8/8 - - -
Sa, 08.05. 14:00 3000 m 8/8 8/8 - - -
Sa, 08.05. 8:00 8700 m 7/8 0/8 - - -
Sa, 08.05. 2:00 - 0/8 0/8 - - -
Ortszeit Bedeckungsgrad in Achtel und Wolkenuntergrenze
Mo, 10.05. 1:30 8(7500m) 8(8700m)
Mo, 10.05. 1:20 8(7500m) 8(8700m)
Mo, 10.05. 1:10 6(7500m) 6(9000m) 7(9000m)
Mo, 10.05. 1:00 1(7800m) 4(9000m)
Mo, 10.05. 0:50 1(7800m) 2(9000m) 4(9000m)
Mo, 10.05. 0:40 3(8700m)
Mo, 10.05. 0:30 2(7800m) 6(8700m)
Mo, 10.05. 0:00 4(7800m) 5(8700m)
Ortszeit Luftdruck NN (hPa) Tendenz (hPa in 3 Std.)
So, 09.05. 20:00 1007 - 1,3
So, 09.05. 14:00 1009 - 1,7
So, 09.05. 8:00 1015 + 0,1
So, 09.05. 2:00 1016 - 0,4
Sa, 08.05. 20:00 1015 - 1,0
Sa, 08.05. 14:00 1018 - 1,4
Sa, 08.05. 8:00 1022 + 0,1
Sa, 08.05. 2:00 1023 + 0,4
Ortszeit Luftdruck NN (hPa) Tendenz (hPa in 3 Std.)
Mo, 10.05. 1:30 1007 - 0,2
Mo, 10.05. 1:20 1007 keine Meldung
Mo, 10.05. 1:10 1007 keine Meldung
Mo, 10.05. 1:00 1007 - 0,2
Mo, 10.05. 0:50 1007 keine Meldung
Mo, 10.05. 0:40 1007 keine Meldung
Mo, 10.05. 0:30 1007 - 0,4
Mo, 10.05. 0:00 1007 - 0,4
Ortszeit Schneehöhe (cm)
So, 09.05. 20:00 0
So, 09.05. 14:00 0
So, 09.05. 8:00 0
So, 09.05. 2:00 0
Sa, 08.05. 20:00 0
Sa, 08.05. 14:00 0
Sa, 08.05. 8:00 0
Sa, 08.05. 2:00 0
Ortszeit Schneehöhe (cm)
Mo, 10.05. 1:30 0
Mo, 10.05. 1:20 0
Mo, 10.05. 1:10 0
Mo, 10.05. 1:00 0
Mo, 10.05. 0:50 0
Mo, 10.05. 0:40 0
Mo, 10.05. 0:30 0
Mo, 10.05. 0:00 0
Link zu dieser Seite / Seite empfehlen

Das Wetter in ...